Time;durP1;ratioP1;P1;durP2;ratioP2;P2;SDS_P1;SDS_P2;PMS_P1;PMS_P2;Temp;Humidity;BMP_temperature;BMP_pressure;BME280_temperature;BME280_humidity;BME280_pressure;Samples;Min_cycle;Max_cycle;Signal;HPM_P1;HPM_P2
2023/12/03 00:01:17;;;;;;;70.28;17.55;;;;;;;;;;6271494;22;20008;-81
2023/12/03 00:03:44;;;;;;;97.90;16.60;;;;;;;;;;6244944;22;20093;-81
2023/12/03 00:06:11;;;;;;;113.95;20.35;;;;;;;;;;6271014;22;20015;-81
2023/12/03 00:08:38;;;;;;;71.68;13.73;;;;;;;;;;6271696;22;20479;-81
2023/12/03 00:11:16;;;;;;;71.45;17.08;;;;;;;;;;6271283;22;20016;-81
2023/12/03 00:13:42;;;;;;;55.88;12.45;;;;;;;;;;6271739;22;20070;-82
2023/12/03 00:16:09;;;;;;;113.72;18.60;;;;;;;;;;6270754;22;20015;-81
2023/12/03 00:18:35;;;;;;;55.17;14.05;;;;;;;;;;6271600;22;20016;-81
2023/12/03 00:21:02;;;;;;;79.03;17.70;;;;;;;;;;6271131;22;20165;-81
2023/12/03 00:23:29;;;;;;;89.03;20.15;;;;;;;;;;6271458;22;20028;-82
2023/12/03 00:25:55;;;;;;;92.70;13.57;;;;;;;;;;6270187;22;20011;-81
2023/12/03 00:28:22;;;;;;;86.90;15.27;;;;;;;;;;6271296;22;20458;-81
2023/12/03 00:30:48;;;;;;;100.53;16.77;;;;;;;;;;6244109;22;20781;-82
2023/12/03 00:33:15;;;;;;;54.00;10.70;;;;;;;;;;6244549;22;20111;-81
2023/12/03 00:35:42;;;;;;;81.15;17.98;;;;;;;;;;6271684;22;20321;-82
2023/12/03 00:38:08;;;;;;;76.28;16.15;;;;;;;;;;6272604;22;20096;-81
2023/12/03 00:40:37;;;;;;;112.15;18.20;;;;;;;;;;6271066;22;20332;-81
2023/12/03 00:43:03;;;;;;;53.58;13.20;;;;;;;;;;6271441;22;20024;-81
2023/12/03 00:45:30;;;;;;;78.38;15.85;;;;;;;;;;6270812;22;20044;-81
2023/12/03 00:47:56;;;;;;;82.57;12.27;;;;;;;;;;6271095;22;20638;-81
2023/12/03 00:50:23;;;;;;;66.78;14.55;;;;;;;;;;6271910;22;20588;-81
2023/12/03 00:52:50;;;;;;;78.72;14.07;;;;;;;;;;6271550;22;20016;-82
2023/12/03 00:55:16;;;;;;;60.75;9.63;;;;;;;;;;6270984;22;20043;-81
2023/12/03 00:57:46;;;;;;;75.05;13.98;;;;;;;;;;6270586;22;20440;-81
2023/12/03 01:00:13;;;;;;;80.80;15.10;;;;;;;;;;6271457;22;20020;-81
2023/12/03 01:02:40;;;;;;;64.15;13.25;;;;;;;;;;6243722;22;20463;-82
2023/12/03 01:05:07;;;;;;;53.35;12.80;;;;;;;;;;6271677;22;20031;-81
2023/12/03 01:07:34;;;;;;;78.78;13.10;;;;;;;;;;6270425;22;20011;-81
2023/12/03 01:10:00;;;;;;;74.70;13.93;;;;;;;;;;6244180;22;20386;-82
2023/12/03 01:12:27;;;;;;;68.30;13.27;;;;;;;;;;6270651;22;20046;-81
2023/12/03 01:14:54;;;;;;;68.78;11.85;;;;;;;;;;6271124;22;20020;-81
2023/12/03 01:17:21;;;;;;;75.78;12.15;;;;;;;;;;6271814;22;20085;-81
2023/12/03 01:19:47;;;;;;;47.30;11.75;;;;;;;;;;6271017;22;20134;-81
2023/12/03 01:22:14;;;;;;;71.20;13.60;;;;;;;;;;6270892;22;20085;-81
2023/12/03 01:24:40;;;;;;;79.45;11.45;;;;;;;;;;6270864;22;20020;-82
2023/12/03 01:27:07;;;;;;;42.80;9.05;;;;;;;;;;6270268;22;20012;-81
2023/12/03 01:29:34;;;;;;;64.88;11.93;;;;;;;;;;6271841;22;20019;-81
2023/12/03 01:32:00;;;;;;;88.13;14.10;;;;;;;;;;6245967;22;20007;-81
2023/12/03 01:34:27;;;;;;;38.35;9.15;;;;;;;;;;6272809;22;20019;-82
2023/12/03 01:36:54;;;;;;;102.28;14.93;;;;;;;;;;6245888;22;20008;-81
2023/12/03 01:39:21;;;;;;;75.18;13.82;;;;;;;;;;6273041;22;20026;-81
2023/12/03 01:41:50;;;;;;;42.97;12.23;;;;;;;;;;6272037;22;20016;-81
2023/12/03 01:44:17;;;;;;;88.65;12.32;;;;;;;;;;6272679;22;20016;-81
2023/12/03 01:46:48;;;;;;;73.35;10.63;;;;;;;;;;6272977;22;20054;-81
2023/12/03 01:49:15;;;;;;;52.75;10.82;;;;;;;;;;6272851;22;20039;-81
2023/12/03 01:51:41;;;;;;;48.60;11.77;;;;;;;;;;6272331;22;20126;-81
2023/12/03 01:54:10;;;;;;;76.25;13.00;;;;;;;;;;6272300;22;20062;-82
2023/12/03 01:56:37;;;;;;;25.90;6.68;;;;;;;;;;6272463;22;20394;-82
2023/12/03 01:59:04;;;;;;;61.42;11.55;;;;;;;;;;6273142;22;20461;-81
2023/12/03 02:01:31;;;;;;;130.98;16.70;;;;;;;;;;6248337;22;20073;-84
2023/12/03 02:03:57;;;;;;;69.05;11.73;;;;;;;;;;6241894;23;20020;-84
2023/12/03 02:06:25;;;;;;;91.47;11.35;;;;;;;;;;6242387;23;20031;-84
2023/12/03 02:08:52;;;;;;;117.70;14.38;;;;;;;;;;6242340;23;20016;-84
2023/12/03 02:11:19;;;;;;;64.78;12.50;;;;;;;;;;6242028;22;20103;-84
2023/12/03 02:13:45;;;;;;;56.17;11.35;;;;;;;;;;6266220;22;20044;-84
2023/12/03 02:16:13;;;;;;;134.80;18.40;;;;;;;;;;6241543;22;20019;-84
2023/12/03 02:18:40;;;;;;;43.17;10.18;;;;;;;;;;6241023;23;20051;-84
2023/12/03 02:21:07;;;;;;;76.90;11.25;;;;;;;;;;6242441;22;20024;-84
2023/12/03 02:23:34;;;;;;;84.43;13.25;;;;;;;;;;6241931;22;20444;-84
2023/12/03 02:26:00;;;;;;;61.53;12.05;;;;;;;;;;6241064;23;20024;-84
2023/12/03 02:28:27;;;;;;;56.13;12.57;;;;;;;;;;6240249;23;20054;-84
2023/12/03 02:30:54;;;;;;;116.70;17.00;;;;;;;;;;6241089;22;20448;-84
2023/12/03 02:33:21;;;;;;;75.07;14.48;;;;;;;;;;6240676;23;20040;-84
2023/12/03 02:35:48;;;;;;;78.80;14.07;;;;;;;;;;6241506;22;20016;-84
2023/12/03 02:38:15;;;;;;;111.93;14.63;;;;;;;;;;6241965;22;20347;-84
2023/12/03 02:40:41;;;;;;;86.28;13.35;;;;;;;;;;6239333;23;20035;-84
2023/12/03 02:43:08;;;;;;;55.88;10.98;;;;;;;;;;6240702;23;20459;-84
2023/12/03 02:45:35;;;;;;;101.95;13.80;;;;;;;;;;6241502;23;20023;-84
2023/12/03 02:48:02;;;;;;;62.38;13.20;;;;;;;;;;6241604;22;20098;-84
2023/12/03 02:50:29;;;;;;;79.07;14.18;;;;;;;;;;6242289;22;20020;-84
2023/12/03 02:52:55;;;;;;;107.45;16.40;;;;;;;;;;6241998;23;20024;-84
2023/12/03 02:55:22;;;;;;;47.38;10.38;;;;;;;;;;6241846;23;20024;-84
2023/12/03 02:57:49;;;;;;;69.70;12.93;;;;;;;;;;6241020;23;20024;-84
2023/12/03 03:00:16;;;;;;;86.85;15.20;;;;;;;;;;6241398;23;20054;-84
2023/12/03 03:02:43;;;;;;;75.45;13.27;;;;;;;;;;6241879;22;20020;-84
2023/12/03 03:05:10;;;;;;;71.15;14.70;;;;;;;;;;6240570;23;20084;-84
2023/12/03 03:07:37;;;;;;;80.28;14.00;;;;;;;;;;6240227;23;20020;-84
2023/12/03 03:10:03;;;;;;;48.53;12.70;;;;;;;;;;6240167;23;20043;-84
2023/12/03 03:12:30;;;;;;;75.05;14.23;;;;;;;;;;6241026;22;20020;-84
2023/12/03 03:14:57;;;;;;;153.57;19.95;;;;;;;;;;6241552;22;20102;-84
2023/12/03 03:17:24;;;;;;;72.47;13.88;;;;;;;;;;6260365;22;19996;-84
2023/12/03 03:19:50;;;;;;;78.03;14.48;;;;;;;;;;6268035;22;20019;-84
2023/12/03 03:22:17;;;;;;;72.28;14.82;;;;;;;;;;6267125;22;20424;-84
2023/12/03 03:24:43;;;;;;;52.88;14.05;;;;;;;;;;6247923;22;20016;-84
2023/12/03 03:27:10;;;;;;;37.65;12.10;;;;;;;;;;6248668;23;20020;-84
2023/12/03 03:29:38;;;;;;;63.17;14.70;;;;;;;;;;6249042;22;20078;-84
2023/12/03 03:32:05;;;;;;;69.13;14.15;;;;;;;;;;6243707;22;20016;-84
2023/12/03 03:34:32;;;;;;;52.15;12.95;;;;;;;;;;6241901;22;20082;-84
2023/12/03 03:36:59;;;;;;;91.97;15.90;;;;;;;;;;6239763;22;20398;-84
2023/12/03 03:39:26;;;;;;;66.50;15.18;;;;;;;;;;6239631;23;20722;-84
2023/12/03 03:41:53;;;;;;;78.28;16.77;;;;;;;;;;6239768;23;20024;-84
2023/12/03 03:44:20;;;;;;;90.70;17.55;;;;;;;;;;6241868;23;20325;-84
2023/12/03 03:46:49;;;;;;;88.55;15.32;;;;;;;;;;6241564;23;20490;-84
2023/12/03 03:49:15;;;;;;;66.20;14.93;;;;;;;;;;6241146;22;20070;-84
2023/12/03 03:51:43;;;;;;;73.57;15.27;;;;;;;;;;6240151;22;20028;-84
2023/12/03 03:54:10;;;;;;;93.53;15.55;;;;;;;;;;6241059;23;20023;-84
2023/12/03 03:56:37;;;;;;;58.15;14.48;;;;;;;;;;6241385;23;20016;-84
2023/12/03 03:59:03;;;;;;;71.20;14.40;;;;;;;;;;6240797;23;20020;-84
2023/12/03 04:01:30;;;;;;;53.47;13.52;;;;;;;;;;6239352;23;20044;-84
2023/12/03 04:03:57;;;;;;;65.18;13.82;;;;;;;;;;6240935;23;20020;-84
2023/12/03 04:06:24;;;;;;;88.05;14.68;;;;;;;;;;6240842;23;20016;-84
2023/12/03 04:08:51;;;;;;;93.55;16.05;;;;;;;;;;6239215;23;20066;-84
2023/12/03 04:11:17;;;;;;;61.78;13.90;;;;;;;;;;6240913;22;20439;-84
2023/12/03 04:13:44;;;;;;;79.75;14.57;;;;;;;;;;6241298;22;20020;-84
2023/12/03 04:16:19;;;;;;;89.70;15.48;;;;;;;;;;6240724;22;20042;-84
2023/12/03 04:18:46;;;;;;;82.68;14.75;;;;;;;;;;6239673;22;20035;-84
2023/12/03 04:21:15;;;;;;;88.10;15.15;;;;;;;;;;6240959;22;20161;-84
2023/12/03 04:23:41;;;;;;;60.65;14.43;;;;;;;;;;6241111;23;20099;-85
2023/12/03 04:26:08;;;;;;;83.75;15.77;;;;;;;;;;6240551;23;20039;-84
2023/12/03 04:28:35;;;;;;;73.20;13.93;;;;;;;;;;6240808;23;20091;-84
2023/12/03 04:31:01;;;;;;;86.82;14.68;;;;;;;;;;6239044;23;20050;-84
2023/12/03 04:33:28;;;;;;;84.05;16.33;;;;;;;;;;6241180;23;20020;-84
2023/12/03 04:35:55;;;;;;;132.57;18.20;;;;;;;;;;6240741;22;20452;-84
2023/12/03 04:38:21;;;;;;;88.20;16.17;;;;;;;;;;6240104;23;20413;-84
2023/12/03 04:40:49;;;;;;;93.43;16.65;;;;;;;;;;6239296;22;20024;-84
2023/12/03 04:43:15;;;;;;;83.28;15.30;;;;;;;;;;6240877;22;20066;-84
2023/12/03 04:45:42;;;;;;;86.10;16.42;;;;;;;;;;6239206;23;20028;-84
2023/12/03 04:48:09;;;;;;;100.97;16.70;;;;;;;;;;6240903;23;20024;-84
2023/12/03 04:50:35;;;;;;;64.18;15.82;;;;;;;;;;6241846;23;20020;-84
2023/12/03 04:53:02;;;;;;;66.80;14.95;;;;;;;;;;6240590;22;20031;-83
2023/12/03 04:55:28;;;;;;;99.20;16.67;;;;;;;;;;6239503;23;20028;-84
2023/12/03 04:57:55;;;;;;;72.57;14.57;;;;;;;;;;6240665;23;20020;-84
2023/12/03 05:00:22;;;;;;;95.25;17.25;;;;;;;;;;6240465;23;20020;-84
2023/12/03 05:02:48;;;;;;;90.72;17.30;;;;;;;;;;6240965;22;20352;-85
2023/12/03 05:05:15;;;;;;;88.55;16.48;;;;;;;;;;6241048;23;20020;-84
2023/12/03 05:07:41;;;;;;;105.60;17.30;;;;;;;;;;6240990;23;20826;-84
2023/12/03 05:10:08;;;;;;;78.70;16.63;;;;;;;;;;6242591;22;20030;-83
2023/12/03 05:12:35;;;;;;;55.30;13.85;;;;;;;;;;6242358;23;20453;-84
2023/12/03 05:15:02;;;;;;;107.50;17.52;;;;;;;;;;6242505;23;20543;-84
2023/12/03 05:17:29;;;;;;;97.32;17.45;;;;;;;;;;6243294;22;20020;-84
2023/12/03 05:19:55;;;;;;;66.68;14.77;;;;;;;;;;6243081;23;20077;-83
2023/12/03 05:22:22;;;;;;;118.57;17.92;;;;;;;;;;6242301;22;20086;-83
2023/12/03 05:24:48;;;;;;;105.63;18.13;;;;;;;;;;6240961;23;20016;-83
2023/12/03 05:27:15;;;;;;;78.07;16.70;;;;;;;;;;6240943;23;20063;-83
2023/12/03 05:29:43;;;;;;;99.25;17.88;;;;;;;;;;6243187;23;20054;-84
2023/12/03 05:32:10;;;;;;;80.70;18.60;;;;;;;;;;6243053;22;20435;-84
2023/12/03 05:34:36;;;;;;;55.20;16.40;;;;;;;;;;6243440;23;20024;-83
2023/12/03 05:37:05;;;;;;;102.95;18.90;;;;;;;;;;6242210;23;20440;-83
2023/12/03 05:39:32;;;;;;;97.53;17.95;;;;;;;;;;6242186;22;20024;-84
2023/12/03 05:41:59;;;;;;;86.70;19.27;;;;;;;;;;6242304;23;20020;-84
2023/12/03 05:44:26;;;;;;;103.38;18.27;;;;;;;;;;6243085;23;20031;-83
2023/12/03 05:46:53;;;;;;;79.97;15.48;;;;;;;;;;6242814;22;20042;-83
2023/12/03 05:49:20;;;;;;;82.65;17.45;;;;;;;;;;6242700;23;20451;-83
2023/12/03 05:51:47;;;;;;;89.20;17.75;;;;;;;;;;6242722;23;20477;-83
2023/12/03 05:54:13;;;;;;;67.10;17.48;;;;;;;;;;6242704;22;20098;-83
2023/12/03 05:56:40;;;;;;;60.55;17.77;;;;;;;;;;6242931;22;20020;-83
2023/12/03 05:59:07;;;;;;;101.78;18.67;;;;;;;;;;6242494;23;20074;-83
2023/12/03 06:01:33;;;;;;;75.55;18.50;;;;;;;;;;6242071;23;20419;-83
2023/12/03 06:04:06;;;;;;;71.93;17.83;;;;;;;;;;6242775;22;20012;-84
2023/12/03 06:06:33;;;;;;;75.77;18.40;;;;;;;;;;6242632;22;20027;-83
2023/12/03 06:09:00;;;;;;;91.65;19.98;;;;;;;;;;6242673;23;20253;-83
2023/12/03 06:11:32;;;;;;;77.75;18.17;;;;;;;;;;6242545;23;20026;-84
2023/12/03 06:13:58;;;;;;;87.50;19.00;;;;;;;;;;6243035;22;20027;-84
2023/12/03 06:16:25;;;;;;;92.40;18.85;;;;;;;;;;6242289;22;20020;-83
2023/12/03 06:18:52;;;;;;;118.35;21.90;;;;;;;;;;6242149;23;20023;-84
2023/12/03 06:21:18;;;;;;;95.57;22.35;;;;;;;;;;6242694;22;20008;-84
2023/12/03 06:23:45;;;;;;;93.93;21.05;;;;;;;;;;6242468;22;20430;-84
2023/12/03 06:26:12;;;;;;;111.05;22.05;;;;;;;;;;6242160;22;20031;-83
2023/12/03 06:28:38;;;;;;;82.50;20.23;;;;;;;;;;6242702;23;20020;-83
2023/12/03 06:31:06;;;;;;;81.75;21.70;;;;;;;;;;6242743;23;20569;-83
2023/12/03 06:33:33;;;;;;;111.18;24.02;;;;;;;;;;6242273;22;20024;-84
2023/12/03 06:36:00;;;;;;;108.57;23.63;;;;;;;;;;6241708;22;20363;-84
2023/12/03 06:38:26;;;;;;;57.17;19.75;;;;;;;;;;6243193;23;20020;-84
2023/12/03 06:40:53;;;;;;;109.28;21.60;;;;;;;;;;6241237;23;20034;-84
2023/12/03 06:43:19;;;;;;;86.28;20.02;;;;;;;;;;6242071;23;20095;-83
2023/12/03 06:45:46;;;;;;;97.00;22.05;;;;;;;;;;6242158;23;20016;-84
2023/12/03 06:48:13;;;;;;;103.93;23.50;;;;;;;;;;6241873;22;20039;-83
2023/12/03 06:50:40;;;;;;;101.05;21.45;;;;;;;;;;6242461;23;20392;-84
2023/12/03 06:53:10;;;;;;;57.92;19.77;;;;;;;;;;6242356;22;20028;-83
2023/12/03 06:55:36;;;;;;;158.60;25.58;;;;;;;;;;6241330;23;20016;-83
2023/12/03 06:58:03;;;;;;;123.70;23.42;;;;;;;;;;6241105;22;20036;-84
2023/12/03 07:00:30;;;;;;;92.35;22.88;;;;;;;;;;6240325;23;20517;-83
2023/12/03 07:02:58;;;;;;;113.18;24.55;;;;;;;;;;6242225;23;20031;-85
2023/12/03 07:05:24;;;;;;;121.30;23.05;;;;;;;;;;6243309;22;20047;-83
2023/12/03 07:07:51;;;;;;;89.03;22.10;;;;;;;;;;6242015;22;20079;-83
2023/12/03 07:10:18;;;;;;;109.38;22.42;;;;;;;;;;6241400;22;20016;-83
2023/12/03 07:12:45;;;;;;;110.03;24.15;;;;;;;;;;6240704;22;20095;-84
2023/12/03 07:15:11;;;;;;;107.65;26.15;;;;;;;;;;6241239;22;20016;-83
2023/12/03 07:17:39;;;;;;;101.78;26.08;;;;;;;;;;6240032;23;20024;-83
2023/12/03 07:20:06;;;;;;;112.88;25.70;;;;;;;;;;6241288;22;20411;-83
2023/12/03 07:22:36;;;;;;;77.70;23.10;;;;;;;;;;6241647;22;20329;-83
2023/12/03 07:25:02;;;;;;;118.25;22.90;;;;;;;;;;6239733;23;20020;-83
2023/12/03 07:27:29;;;;;;;116.60;26.50;;;;;;;;;;6238312;23;20043;-84
2023/12/03 07:29:57;;;;;;;102.90;25.38;;;;;;;;;;6242278;23;20024;-83
2023/12/03 07:32:25;;;;;;;137.18;25.83;;;;;;;;;;6241665;22;20402;-83
2023/12/03 07:34:52;;;;;;;153.02;28.38;;;;;;;;;;6240460;22;20016;-83
2023/12/03 07:37:19;;;;;;;97.53;22.75;;;;;;;;;;6241298;23;20451;-84
2023/12/03 07:39:46;;;;;;;80.45;21.63;;;;;;;;;;6241596;23;20404;-87
2023/12/03 07:42:14;;;;;;;123.55;24.10;;;;;;;;;;6240224;23;20325;-85
2023/12/03 07:44:41;;;;;;;78.55;20.52;;;;;;;;;;6239925;23;20360;-83
2023/12/03 07:47:08;;;;;;;120.95;22.73;;;;;;;;;;6241584;23;20387;-84
2023/12/03 07:49:34;;;;;;;131.05;24.80;;;;;;;;;;6240824;23;20027;-84
2023/12/03 07:52:01;;;;;;;104.72;21.38;;;;;;;;;;6240908;22;20019;-84
2023/12/03 07:54:28;;;;;;;90.88;20.60;;;;;;;;;;6240973;23;20016;-83
2023/12/03 07:56:55;;;;;;;159.82;26.27;;;;;;;;;;6240056;22;20020;-83
2023/12/03 07:59:21;;;;;;;76.45;20.83;;;;;;;;;;6242083;23;20016;-84
2023/12/03 08:01:48;;;;;;;76.63;21.42;;;;;;;;;;6240617;22;20042;-81
2023/12/03 08:04:14;;;;;;;150.40;26.88;;;;;;;;;;6240579;23;20411;-84
2023/12/03 08:06:41;;;;;;;76.85;22.83;;;;;;;;;;6241109;23;20022;-84
2023/12/03 08:09:08;;;;;;;90.72;22.27;;;;;;;;;;6241366;23;20024;-84
2023/12/03 08:11:35;;;;;;;112.72;24.77;;;;;;;;;;6240367;23;20031;-85
2023/12/03 08:14:03;;;;;;;102.65;24.33;;;;;;;;;;6265622;22;19996;-85
2023/12/03 08:16:30;;;;;;;57.33;20.33;;;;;;;;;;6277346;22;20016;-85
2023/12/03 08:18:57;;;;;;;75.35;21.00;;;;;;;;;;6245325;23;20042;-84
2023/12/03 08:21:23;;;;;;;65.15;20.95;;;;;;;;;;6248557;23;20047;-85
2023/12/03 08:23:50;;;;;;;92.72;21.75;;;;;;;;;;6241565;23;20051;-85
2023/12/03 08:26:17;;;;;;;135.02;21.02;;;;;;;;;;6241459;23;20395;-84
2023/12/03 08:28:44;;;;;;;81.72;19.40;;;;;;;;;;6241617;22;20099;-83
2023/12/03 08:31:11;;;;;;;88.57;21.20;;;;;;;;;;6241642;22;20016;-83
2023/12/03 08:33:43;;;;;;;111.82;24.60;;;;;;;;;;6240529;22;20027;-84
2023/12/03 08:36:15;;;;;;;123.15;25.20;;;;;;;;;;6240949;23;20069;-84
2023/12/03 08:38:42;;;;;;;101.83;21.97;;;;;;;;;;6239700;23;20402;-85
2023/12/03 08:41:08;;;;;;;105.78;22.92;;;;;;;;;;6240842;23;20047;-85
2023/12/03 08:43:35;;;;;;;108.10;24.02;;;;;;;;;;6241307;22;20441;-85
2023/12/03 08:46:02;;;;;;;93.50;23.15;;;;;;;;;;6238984;23;20024;-85
2023/12/03 08:48:29;;;;;;;106.15;23.98;;;;;;;;;;6240916;23;20016;-85
2023/12/03 08:50:55;;;;;;;150.30;25.25;;;;;;;;;;6241301;23;20012;-84
2023/12/03 08:53:22;;;;;;;100.43;21.85;;;;;;;;;;6241250;23;20097;-85
2023/12/03 08:55:48;;;;;;;121.20;23.02;;;;;;;;;;6238244;23;20024;-85
2023/12/03 08:58:15;;;;;;;77.95;21.73;;;;;;;;;;6240797;23;20020;-84
2023/12/03 09:00:42;;;;;;;100.97;21.15;;;;;;;;;;6241473;23;20074;-85
2023/12/03 09:03:08;;;;;;;112.63;23.30;;;;;;;;;;6241063;22;20012;-83
2023/12/03 09:05:35;;;;;;;122.38;26.45;;;;;;;;;;6242067;23;20031;-84
2023/12/03 09:08:02;;;;;;;69.60;20.52;;;;;;;;;;6242447;23;20050;-86
2023/12/03 09:10:28;;;;;;;126.07;24.10;;;;;;;;;;6241265;23;20458;-84
2023/12/03 09:12:55;;;;;;;85.03;22.63;;;;;;;;;;6241887;23;20013;-85
2023/12/03 09:15:21;;;;;;;97.43;23.90;;;;;;;;;;6240555;23;20024;-84
2023/12/03 09:17:48;;;;;;;88.38;23.65;;;;;;;;;;6241104;23;20454;-86
2023/12/03 09:20:15;;;;;;;112.38;21.88;;;;;;;;;;6240828;23;20020;-85
2023/12/03 09:22:41;;;;;;;72.47;19.40;;;;;;;;;;6241118;23;20020;-85
2023/12/03 09:25:08;;;;;;;68.35;19.58;;;;;;;;;;6239136;23;20055;-86
2023/12/03 09:27:34;;;;;;;85.40;20.67;;;;;;;;;;6240665;22;20339;-84
2023/12/03 09:30:04;;;;;;;108.72;22.27;;;;;;;;;;6238862;23;20432;-83
2023/12/03 09:32:31;;;;;;;80.10;17.85;;;;;;;;;;6240165;23;20025;-85
2023/12/03 09:34:58;;;;;;;113.78;21.20;;;;;;;;;;6240195;22;20024;-85
2023/12/03 09:37:24;;;;;;;78.63;18.75;;;;;;;;;;6241559;22;20016;-86
2023/12/03 09:39:51;;;;;;;92.18;19.92;;;;;;;;;;6240039;23;20364;-86
2023/12/03 09:42:20;;;;;;;116.60;22.92;;;;;;;;;;6241597;23;20027;-87
2023/12/03 09:44:53;;;;;;;104.95;20.55;;;;;;;;;;6240839;23;20337;-88
2023/12/03 09:47:22;;;;;;;145.87;24.27;;;;;;;;;;6240711;22;20052;-87
2023/12/03 09:49:53;;;;;;;98.95;19.33;;;;;;;;;;6241012;23;20254;-89
2023/12/03 09:52:21;;;;;;;79.72;19.88;;;;;;;;;;6242225;22;20054;-86
2023/12/03 09:54:48;;;;;;;105.95;19.50;;;;;;;;;;6239972;23;20081;-88
2023/12/03 09:57:15;;;;;;;95.10;20.23;;;;;;;;;;6245290;23;20024;-87
2023/12/03 09:59:45;;;;;;;113.70;21.92;;;;;;;;;;6244387;22;20020;-89
2023/12/03 10:02:12;;;;;;;134.85;22.30;;;;;;;;;;6267476;22;20074;-87
2023/12/03 10:04:39;;;;;;;68.32;17.92;;;;;;;;;;6243981;23;20016;-89
2023/12/03 10:07:06;;;;;;;76.32;18.88;;;;;;;;;;6242560;23;20012;-91
2023/12/03 10:09:33;;;;;;;83.78;16.33;;;;;;;;;;6243724;22;20107;-92
2023/12/03 10:12:02;;;;;;;141.57;21.75;;;;;;;;;;6243938;22;20470;-86
2023/12/03 10:14:29;;;;;;;76.38;16.63;;;;;;;;;;6243453;22;20796;-84
2023/12/03 10:16:56;;;;;;;88.03;18.10;;;;;;;;;;6242714;23;20432;-83
2023/12/03 10:19:27;;;;;;;99.15;17.60;;;;;;;;;;6240969;23;20408;-83
2023/12/03 10:21:55;;;;;;;81.38;15.55;;;;;;;;;;6241861;23;20616;-86
2023/12/03 10:24:22;;;;;;;101.22;17.17;;;;;;;;;;6241327;23;20111;-88
2023/12/03 10:26:51;;;;;;;116.55;20.02;;;;;;;;;;6240831;23;20083;-86
2023/12/03 10:29:23;;;;;;;73.85;18.27;;;;;;;;;;6242877;22;20097;-86
2023/12/03 10:31:50;;;;;;;118.13;21.35;;;;;;;;;;6242808;22;20020;-87
2023/12/03 10:34:17;;;;;;;95.60;19.10;;;;;;;;;;6242573;22;20729;-90
2023/12/03 10:36:44;;;;;;;117.75;19.80;;;;;;;;;;6242497;22;20024;-88
2023/12/03 10:39:17;;;;;;;122.82;20.10;;;;;;;;;;6244510;22;20044;-90
2023/12/03 10:41:51;;;;;;;78.70;16.17;;;;;;;;;;6239195;23;20019;-89
2023/12/03 10:44:18;;;;;;;100.88;19.80;;;;;;;;;;6243287;22;20073;-88
2023/12/03 10:46:45;;;;;;;108.88;21.73;;;;;;;;;;6242982;22;20078;-87
2023/12/03 10:49:12;;;;;;;82.55;21.00;;;;;;;;;;6243981;22;20036;-88
2023/12/03 10:51:40;;;;;;;101.28;22.25;;;;;;;;;;6244978;22;20012;-90
2023/12/03 10:54:07;;;;;;;131.15;22.27;;;;;;;;;;6243701;23;20099;-89
2023/12/03 10:56:34;;;;;;;77.57;18.00;;;;;;;;;;6241857;23;20020;-87
2023/12/03 10:59:16;;;;;;;97.28;20.50;;;;;;;;;;6243965;22;20016;-90
2023/12/03 11:01:48;;;;;;;90.20;19.40;;;;;;;;;;6245933;22;20024;-88
2023/12/03 11:04:42;;;;;;;120.68;20.55;;;;;;;;;;6243325;22;20020;-88
2023/12/03 11:07:14;;;;;;;85.43;20.42;;;;;;;;;;6242192;23;20020;-89
2023/12/03 11:09:47;;;;;;;121.20;21.52;;;;;;;;;;6270579;22;20106;-91
2023/12/03 11:12:27;;;;;;;82.63;18.38;;;;;;;;;;6244885;23;20016;-88
2023/12/03 11:14:55;;;;;;;150.63;23.88;;;;;;;;;;6243124;23;20016;-89
2023/12/03 11:17:40;;;;;;;64.30;18.77;;;;;;;;;;6245246;22;20091;-92
2023/12/03 11:20:10;;;;;;;125.57;23.65;;;;;;;;;;6242184;23;20396;-90
2023/12/03 11:22:50;;;;;;;261.40;30.40;;;;;;;;;;6250083;22;21109;-92
2023/12/03 11:26:14;;;;;;;89.22;18.38;;;;;;;;;;6167127;23;20025;-96
2023/12/03 11:32:11;;;;;;;93.75;20.48;;;;;;;;;;6126949;23;20056;-90
2023/12/03 11:34:38;;;;;;;85.32;19.73;;;;;;;;;;6150335;23;20084;-87
2023/12/03 11:37:07;;;;;;;64.85;18.13;;;;;;;;;;6151122;23;20096;-87
2023/12/03 11:39:37;;;;;;;105.82;20.15;;;;;;;;;;6147785;23;20021;-88
2023/12/03 11:42:06;;;;;;;96.10;19.52;;;;;;;;;;6146673;23;20519;-87
2023/12/03 11:44:33;;;;;;;87.32;18.02;;;;;;;;;;6148083;23;20040;-89
2023/12/03 11:47:01;;;;;;;88.68;16.38;;;;;;;;;;6148307;23;20021;-88
2023/12/03 11:49:28;;;;;;;111.47;19.15;;;;;;;;;;6153639;23;20288;-91
2023/12/03 11:51:55;;;;;;;89.22;17.95;;;;;;;;;;6179055;23;20077;-89
2023/12/03 11:54:28;;;;;;;101.47;19.35;;;;;;;;;;6196931;22;20004;-88
2023/12/03 11:56:54;;;;;;;126.82;19.77;;;;;;;;;;6272217;22;19992;-92
2023/12/03 11:59:22;;;;;;;113.95;18.33;;;;;;;;;;6247126;22;20004;-89
2023/12/03 12:01:59;;;;;;;45.85;16.27;;;;;;;;;;6248542;22;20043;-87
2023/12/03 12:04:26;;;;;;;96.05;19.08;;;;;;;;;;6252902;23;20356;-91
2023/12/03 12:06:53;;;;;;;113.53;20.80;;;;;;;;;;6190820;23;20509;-89
2023/12/03 12:09:22;;;;;;;141.98;22.85;;;;;;;;;;6214785;23;20115;-90
2023/12/03 12:11:52;;;;;;;95.70;20.63;;;;;;;;;;6242320;23;20012;-90
2023/12/03 12:14:19;;;;;;;95.78;20.95;;;;;;;;;;6216146;23;20020;-87
2023/12/03 12:16:46;;;;;;;95.20;19.70;;;;;;;;;;6215445;23;20016;-89
2023/12/03 12:19:13;;;;;;;79.88;20.33;;;;;;;;;;6242392;23;20027;-89
2023/12/03 12:21:51;;;;;;;99.55;19.92;;;;;;;;;;6215262;23;20096;-87
2023/12/03 12:24:17;;;;;;;74.88;19.60;;;;;;;;;;6242326;23;20596;-88
2023/12/03 12:26:44;;;;;;;70.20;18.65;;;;;;;;;;6215220;23;20036;-89
2023/12/03 12:29:11;;;;;;;80.07;19.17;;;;;;;;;;6215033;23;20020;-86
2023/12/03 12:31:38;;;;;;;80.78;20.10;;;;;;;;;;6242259;23;20440;-88
2023/12/03 12:34:05;;;;;;;81.05;21.60;;;;;;;;;;6242210;23;20395;-87
2023/12/03 12:36:31;;;;;;;78.20;21.95;;;;;;;;;;6243013;23;20020;-90
2023/12/03 12:38:59;;;;;;;87.57;23.63;;;;;;;;;;6191909;23;20055;-86
2023/12/03 12:41:36;;;;;;;83.63;22.00;;;;;;;;;;6243769;23;20040;-91
2023/12/03 12:44:03;;;;;;;79.88;23.98;;;;;;;;;;6218718;23;20016;-94
2023/12/03 12:46:50;;;;;;;83.53;27.02;;;;;;;;;;6219026;23;20012;-91
2023/12/03 12:49:18;;;;;;;144.35;31.35;;;;;;;;;;6189615;23;20020;-85
2023/12/03 12:51:45;;;;;;;84.80;28.33;;;;;;;;;;6241713;23;20373;-88
2023/12/03 12:54:14;;;;;;;87.50;26.20;;;;;;;;;;6241327;23;20492;-89
2023/12/03 12:56:43;;;;;;;110.28;26.58;;;;;;;;;;6241430;23;20020;-89
2023/12/03 12:59:11;;;;;;;74.32;23.15;;;;;;;;;;6242327;23;20020;-88
2023/12/03 13:01:41;;;;;;;88.15;23.33;;;;;;;;;;6241494;23;20348;-87
2023/12/03 13:04:08;;;;;;;108.78;24.20;;;;;;;;;;6241008;23;20023;-86
2023/12/03 13:06:34;;;;;;;90.80;23.23;;;;;;;;;;6241428;23;20012;-87
2023/12/03 13:09:01;;;;;;;100.28;25.10;;;;;;;;;;6241132;23;20020;-87
2023/12/03 13:11:27;;;;;;;105.28;25.83;;;;;;;;;;6241247;23;20656;-87
2023/12/03 13:13:54;;;;;;;89.65;24.58;;;;;;;;;;6241266;23;20016;-85
2023/12/03 13:16:23;;;;;;;91.50;23.50;;;;;;;;;;6241108;23;20024;-86
2023/12/03 13:18:50;;;;;;;121.53;27.35;;;;;;;;;;6240993;23;20020;-87
2023/12/03 13:21:17;;;;;;;83.82;26.30;;;;;;;;;;6242290;23;20012;-87
2023/12/03 13:23:44;;;;;;;80.60;26.15;;;;;;;;;;6243456;23;20015;-89
2023/12/03 13:26:11;;;;;;;121.43;28.30;;;;;;;;;;6218528;23;20016;-89
2023/12/03 13:28:38;;;;;;;106.80;28.00;;;;;;;;;;6219544;23;20016;-88
2023/12/03 13:31:05;;;;;;;96.45;27.95;;;;;;;;;;6244945;23;20072;-87
2023/12/03 13:33:31;;;;;;;90.55;26.17;;;;;;;;;;6244587;23;20027;-88
2023/12/03 13:35:58;;;;;;;93.78;27.30;;;;;;;;;;6245538;23;20012;-87
2023/12/03 13:38:25;;;;;;;85.95;28.50;;;;;;;;;;6245169;23;20466;-88
2023/12/03 13:40:53;;;;;;;103.97;30.30;;;;;;;;;;6250798;22;20020;-87
2023/12/03 13:43:19;;;;;;;94.93;27.58;;;;;;;;;;6242470;23;20012;-88
2023/12/03 13:45:46;;;;;;;71.03;21.92;;;;;;;;;;6243455;23;20020;-87
2023/12/03 13:48:13;;;;;;;102.45;19.55;;;;;;;;;;6243011;23;20054;-88
2023/12/03 13:50:40;;;;;;;53.60;12.23;;;;;;;;;;6244166;23;20016;-88
2023/12/03 13:53:06;;;;;;;78.95;16.05;;;;;;;;;;6242072;23;20452;-88
2023/12/03 13:55:33;;;;;;;98.95;15.93;;;;;;;;;;6242581;23;20019;-87
2023/12/03 13:58:01;;;;;;;57.70;13.85;;;;;;;;;;6243175;23;20054;-87
2023/12/03 14:00:27;;;;;;;46.83;12.77;;;;;;;;;;6243618;23;20352;-87
2023/12/03 14:02:55;;;;;;;78.25;15.90;;;;;;;;;;6243344;23;20016;-87
2023/12/03 14:05:22;;;;;;;51.80;12.63;;;;;;;;;;6243633;23;20018;-90
2023/12/03 14:07:54;;;;;;;47.17;12.20;;;;;;;;;;6243494;23;20016;-90
2023/12/03 14:10:22;;;;;;;83.20;14.40;;;;;;;;;;6191421;23;20744;-90
2023/12/03 14:12:48;;;;;;;42.22;12.93;;;;;;;;;;6243300;23;20032;-89
2023/12/03 14:15:15;;;;;;;77.53;15.15;;;;;;;;;;6216517;23;20074;-90
2023/12/03 14:17:42;;;;;;;77.93;15.50;;;;;;;;;;6216391;23;20030;-90
2023/12/03 14:20:08;;;;;;;56.00;12.07;;;;;;;;;;6243559;23;20095;-89